createdAt,value
2022-10-04T00:00:58.323Z,63
2022-10-04T00:03:29.379Z,62
2022-10-04T00:06:02.321Z,63
2022-10-04T00:08:34.287Z,62
2022-10-04T00:11:05.466Z,62
2022-10-04T00:13:37.266Z,63
2022-10-04T00:16:08.563Z,62
2022-10-04T00:18:39.716Z,62
2022-10-04T00:21:11.180Z,62
2022-10-04T00:23:42.190Z,62
2022-10-04T00:26:13.540Z,63
2022-10-04T00:28:45.135Z,63
2022-10-04T00:31:16.857Z,63
2022-10-04T00:33:48.112Z,63
2022-10-04T00:36:19.428Z,64
2022-10-04T00:38:50.677Z,63
2022-10-04T00:41:22.008Z,63
2022-10-04T00:43:53.376Z,64
2022-10-04T00:46:24.511Z,64
2022-10-04T00:48:55.840Z,64
2022-10-04T00:51:26.844Z,64
2022-10-04T00:53:58.317Z,64
2022-10-04T00:56:27.768Z,64
2022-10-04T00:58:59.040Z,64
2022-10-04T01:01:29.207Z,64
2022-10-04T01:03:58.726Z,65
2022-10-04T01:06:29.672Z,65
2022-10-04T01:09:01.342Z,65
2022-10-04T01:11:33.246Z,64
2022-10-04T01:14:04.408Z,65
2022-10-04T01:16:35.754Z,64
2022-10-04T01:19:06.837Z,64
2022-10-04T01:21:37.730Z,64
2022-10-04T01:24:08.600Z,64
2022-10-04T01:26:39.951Z,64
2022-10-04T01:29:11.093Z,65
2022-10-04T01:31:40.973Z,65
2022-10-04T01:34:12.170Z,66
2022-10-04T01:36:43.913Z,65
2022-10-04T01:39:15.852Z,65
2022-10-04T01:41:47.326Z,65
2022-10-04T01:44:18.446Z,65
2022-10-04T01:46:50.830Z,65
2022-10-04T01:49:21.950Z,65
2022-10-04T01:51:53.134Z,65
2022-10-04T01:54:24.705Z,65
2022-10-04T01:56:56.032Z,65
2022-10-04T01:59:26.866Z,66
2022-10-04T02:01:58.427Z,66
2022-10-04T02:04:30.254Z,66
2022-10-04T02:07:01.592Z,66
2022-10-04T02:09:33.208Z,66
2022-10-04T02:12:04.451Z,66
2022-10-04T02:14:36.355Z,66
2022-10-04T02:17:08.569Z,66
2022-10-04T02:19:39.487Z,66
2022-10-04T02:22:10.652Z,66
2022-10-04T02:24:42.246Z,67
2022-10-04T02:27:13.903Z,66
2022-10-04T02:29:46.036Z,67
2022-10-04T02:32:16.930Z,66
2022-10-04T02:34:48.416Z,66
2022-10-04T02:37:19.931Z,66
2022-10-04T02:39:52.316Z,66
2022-10-04T02:42:23.752Z,67
2022-10-04T02:44:54.540Z,67
2022-10-04T02:47:25.577Z,67
2022-10-04T02:49:58.328Z,66
2022-10-04T02:52:29.693Z,66
2022-10-04T02:55:02.790Z,66
2022-10-04T02:57:34.537Z,66
2022-10-04T03:00:05.752Z,67
2022-10-04T03:02:37.268Z,67
2022-10-04T03:05:09.119Z,67
2022-10-04T03:07:40.414Z,67
2022-10-04T03:10:12.389Z,67
2022-10-04T03:12:44.106Z,67
2022-10-04T03:15:17.833Z,67
2022-10-04T03:17:49.634Z,67
2022-10-04T03:20:21.466Z,67
2022-10-04T03:22:53.503Z,67
2022-10-04T03:25:24.224Z,67
2022-10-04T03:27:56.826Z,67
2022-10-04T03:30:28.416Z,67
2022-10-04T03:32:59.940Z,67
2022-10-04T03:35:31.770Z,67
2022-10-04T03:38:02.834Z,67
2022-10-04T03:40:34.300Z,67
2022-10-04T03:43:06.240Z,67
2022-10-04T03:45:37.393Z,67
2022-10-04T03:48:08.426Z,67
2022-10-04T03:50:39.553Z,67
2022-10-04T03:53:11.678Z,67
2022-10-04T03:55:43.224Z,67
2022-10-04T03:58:13.310Z,67
2022-10-04T04:00:44.915Z,67
2022-10-04T04:03:16.736Z,67
2022-10-04T04:05:48.671Z,67
2022-10-04T04:08:19.583Z,67
2022-10-04T04:10:50.487Z,66
2022-10-04T04:13:22.605Z,67
2022-10-04T04:15:54.882Z,67
2022-10-04T04:18:26.163Z,67
2022-10-04T04:20:56.779Z,67
2022-10-04T04:23:29.583Z,66
2022-10-04T04:25:59.183Z,67
2022-10-04T04:28:29.949Z,67
2022-10-04T04:31:01.227Z,67
2022-10-04T04:33:32.832Z,67
2022-10-04T04:36:04.275Z,67
2022-10-04T04:38:35.470Z,67
2022-10-04T04:41:06.541Z,67
2022-10-04T04:43:37.654Z,67
2022-10-04T04:46:26.451Z,67
2022-10-04T04:48:40.032Z,69
2022-10-04T04:51:11.666Z,68
2022-10-04T04:53:44.778Z,68
2022-10-04T04:56:18.069Z,68
2022-10-04T04:58:47.351Z,67
2022-10-04T05:01:20.158Z,67
2022-10-04T05:03:51.457Z,67
2022-10-04T05:06:22.943Z,67
2022-10-04T05:08:54.960Z,67
2022-10-04T05:11:28.345Z,67
2022-10-04T05:14:00.125Z,67
2022-10-04T05:16:31.191Z,66
2022-10-04T05:19:01.706Z,66
2022-10-04T05:21:33.434Z,66
2022-10-04T05:24:04.328Z,66
2022-10-04T05:26:34.988Z,66
2022-10-04T05:29:06.504Z,66
2022-10-04T05:31:37.327Z,66
2022-10-04T05:34:09.022Z,65
2022-10-04T05:36:39.873Z,65
2022-10-04T05:39:13.367Z,65
2022-10-04T05:41:43.002Z,65
2022-10-04T05:44:14.532Z,64
2022-10-04T05:46:47.620Z,64
2022-10-04T05:49:22.911Z,64
2022-10-04T05:51:53.958Z,64
2022-10-04T05:54:25.184Z,64
2022-10-04T05:56:54.915Z,64
2022-10-04T05:59:26.679Z,64
2022-10-04T06:01:57.502Z,64
2022-10-04T06:04:31.623Z,64
2022-10-04T06:07:03.519Z,64
2022-10-04T06:09:34.358Z,63
2022-10-04T06:12:05.458Z,65
2022-10-04T06:14:36.661Z,64
2022-10-04T06:17:07.741Z,64
2022-10-04T06:19:38.789Z,63
2022-10-04T06:22:09.640Z,63
2022-10-04T06:24:40.937Z,63
2022-10-04T06:27:11.720Z,63
2022-10-04T06:29:46.600Z,64
2022-10-04T06:32:17.157Z,63
2022-10-04T06:34:50.511Z,63
2022-10-04T06:37:22.126Z,62
2022-10-04T06:39:52.829Z,62
2022-10-04T06:42:23.609Z,62
2022-10-04T06:44:54.899Z,62
2022-10-04T06:47:26.487Z,62
2022-10-04T06:49:58.265Z,62
2022-10-04T06:52:30.844Z,61
2022-10-04T06:55:04.342Z,62
2022-10-04T06:57:37.631Z,61
2022-10-04T07:00:09.228Z,61
2022-10-04T07:02:40.859Z,61
2022-10-04T07:05:12.279Z,61
2022-10-04T07:07:43.760Z,61
2022-10-04T07:10:12.717Z,61
2022-10-04T07:12:43.901Z,60
2022-10-04T07:15:15.954Z,60
2022-10-04T07:17:47.094Z,60
2022-10-04T07:20:21.147Z,60
2022-10-04T07:22:52.213Z,60
2022-10-04T07:25:22.922Z,60
2022-10-04T07:27:53.678Z,60
2022-10-04T07:30:24.523Z,59
2022-10-04T07:32:55.788Z,59
2022-10-04T07:35:27.225Z,59
2022-10-04T07:37:57.827Z,59
2022-10-04T07:40:29.121Z,59
2022-10-04T07:43:00.261Z,59
2022-10-04T07:45:31.015Z,59
2022-10-04T07:48:02.103Z,59
2022-10-04T07:50:33.185Z,59
2022-10-04T07:53:08.631Z,58
2022-10-04T07:55:35.945Z,58
2022-10-04T07:58:06.993Z,57
2022-10-04T08:00:37.823Z,58
2022-10-04T08:03:08.454Z,58
2022-10-04T08:05:39.213Z,58
2022-10-04T08:08:12.153Z,59
2022-10-04T08:10:43.777Z,58
2022-10-04T08:13:14.992Z,59
2022-10-04T08:15:45.837Z,58
2022-10-04T08:18:17.011Z,58
2022-10-04T08:20:48.011Z,59
2022-10-04T08:23:18.809Z,58
2022-10-04T08:25:48.393Z,57
2022-10-04T08:28:19.232Z,58
2022-10-04T08:30:50.908Z,58
2022-10-04T08:33:22.170Z,58
2022-10-04T08:35:52.696Z,58
2022-10-04T08:38:23.787Z,58
2022-10-04T08:40:54.793Z,58
2022-10-04T08:43:26.075Z,58
2022-10-04T08:45:56.786Z,58
2022-10-04T08:48:29.834Z,58
2022-10-04T08:51:01.332Z,59
2022-10-04T08:53:34.081Z,58
2022-10-04T08:56:09.404Z,59
2022-10-04T08:58:40.160Z,58
2022-10-04T09:01:11.364Z,59
2022-10-04T09:03:41.985Z,59
2022-10-04T09:06:12.739Z,59
2022-10-04T09:08:43.496Z,59
2022-10-04T09:11:15.475Z,59
2022-10-04T09:13:46.378Z,59
2022-10-04T09:16:18.282Z,58
2022-10-04T09:18:48.509Z,59
2022-10-04T09:21:19.501Z,58
2022-10-04T09:23:50.883Z,58
2022-10-04T09:26:22.826Z,58
2022-10-04T09:28:53.736Z,58
2022-10-04T09:31:24.804Z,59
2022-10-04T09:33:55.414Z,59
2022-10-04T09:36:26.637Z,59
2022-10-04T09:39:11.737Z,59
2022-10-04T09:41:32.004Z,58
2022-10-04T09:44:04.932Z,59
2022-10-04T09:46:36.434Z,59
2022-10-04T09:49:09.031Z,59
2022-10-04T09:51:40.115Z,58
2022-10-04T09:54:10.851Z,57
2022-10-04T09:56:42.242Z,57
2022-10-04T09:59:13.713Z,57
2022-10-04T10:01:45.285Z,57
2022-10-04T10:04:16.045Z,56
2022-10-04T10:06:46.996Z,56
2022-10-04T10:09:17.847Z,57
2022-10-04T10:11:49.026Z,56
2022-10-04T10:14:19.885Z,56
2022-10-04T10:16:52.872Z,56
2022-10-04T10:19:28.118Z,56
2022-10-04T10:21:54.903Z,55
2022-10-04T10:24:25.944Z,55
2022-10-04T10:26:58.606Z,56
2022-10-04T10:29:29.245Z,57
2022-10-04T10:31:59.909Z,55
2022-10-04T10:34:30.467Z,55
2022-10-04T10:36:59.889Z,54
2022-10-04T10:39:30.752Z,54
2022-10-04T10:42:01.851Z,54
2022-10-04T10:44:32.358Z,54
2022-10-04T10:47:02.976Z,54
2022-10-04T10:49:32.266Z,53
2022-10-04T10:52:03.521Z,53
2022-10-04T10:54:36.805Z,53
2022-10-04T10:57:07.905Z,53
2022-10-04T10:59:39.866Z,53
2022-10-04T11:02:11.113Z,53
2022-10-04T11:04:41.314Z,54
2022-10-04T11:07:11.693Z,55
2022-10-04T11:09:42.441Z,55
2022-10-04T11:12:13.860Z,53
2022-10-04T11:14:44.450Z,54
2022-10-04T11:17:17.408Z,53
2022-10-04T11:19:48.501Z,52
2022-10-04T11:22:20.280Z,53
2022-10-04T11:24:53.286Z,52
2022-10-04T11:27:23.921Z,52
2022-10-04T11:29:54.856Z,53
2022-10-04T11:32:26.637Z,53
2022-10-04T11:34:57.443Z,53
2022-10-04T11:37:28.751Z,55
2022-10-04T11:39:59.616Z,54
2022-10-04T11:42:29.324Z,53
2022-10-04T11:45:00.420Z,53
2022-10-04T11:47:31.307Z,53
2022-10-04T11:50:03.680Z,53
2022-10-04T11:52:34.912Z,53
2022-10-04T11:55:06.365Z,54
2022-10-04T11:57:37.211Z,54
2022-10-04T12:00:09.549Z,54
2022-10-04T12:02:40.491Z,54
2022-10-04T12:05:12.400Z,55
2022-10-04T12:07:44.096Z,54
2022-10-04T12:10:14.926Z,54
2022-10-04T12:12:45.751Z,55
2022-10-04T12:15:16.431Z,55
2022-10-04T12:17:47.119Z,53
2022-10-04T12:20:18.226Z,54
2022-10-04T12:22:49.550Z,53
2022-10-04T12:25:20.655Z,52
2022-10-04T12:27:50.818Z,53
2022-10-04T12:30:21.810Z,52
2022-10-04T12:32:55.581Z,52
2022-10-04T12:35:23.335Z,52
2022-10-04T12:37:54.496Z,52
2022-10-04T12:40:26.343Z,53
2022-10-04T12:42:59.805Z,54
2022-10-04T12:45:30.742Z,53
2022-10-04T12:48:01.302Z,55
2022-10-04T12:50:32.529Z,55
2022-10-04T12:53:03.786Z,55
2022-10-04T12:55:34.836Z,56
2022-10-04T12:58:09.898Z,54
2022-10-04T13:00:40.287Z,54
2022-10-04T13:03:11.218Z,52
2022-10-04T13:05:41.505Z,53
2022-10-04T13:08:12.672Z,53
2022-10-04T13:10:43.815Z,53
2022-10-04T13:13:15.367Z,54
2022-10-04T13:18:20.842Z,55
2022-10-04T13:20:50.579Z,55
2022-10-04T13:23:21.662Z,55
2022-10-04T13:25:52.902Z,55
2022-10-04T13:28:26.597Z,56
2022-10-04T13:30:59.307Z,58
2022-10-04T13:33:35.034Z,59
2022-10-04T13:36:07.734Z,60
2022-10-04T13:38:38.992Z,60
2022-10-04T13:41:10.180Z,62
2022-10-04T13:43:51.820Z,62
2022-10-04T13:46:23.135Z,62
2022-10-04T13:48:55.038Z,62
2022-10-04T13:51:25.941Z,61
2022-10-04T13:53:56.880Z,60
2022-10-04T13:56:26.465Z,60
2022-10-04T13:58:57.220Z,60
2022-10-04T14:01:30.229Z,61
2022-10-04T14:04:02.282Z,61
2022-10-04T14:06:34.502Z,61
2022-10-04T14:09:07.619Z,62
2022-10-04T14:11:40.297Z,61
2022-10-04T14:14:11.473Z,61
2022-10-04T14:16:43.785Z,61
2022-10-04T14:19:14.778Z,62
2022-10-04T14:21:47.262Z,61
2022-10-04T14:24:18.185Z,61
2022-10-04T14:26:49.250Z,61
2022-10-04T14:29:20.786Z,61
2022-10-04T14:31:52.750Z,62
2022-10-04T14:34:24.191Z,61
2022-10-04T14:36:54.985Z,62
2022-10-04T14:39:26.257Z,61
2022-10-04T14:41:58.730Z,61
2022-10-04T14:44:29.977Z,61
2022-10-04T14:47:01.090Z,60
2022-10-04T14:49:33.005Z,61
2022-10-04T14:52:04.841Z,61
2022-10-04T14:54:36.764Z,62
2022-10-04T14:57:10.492Z,62
2022-10-04T14:59:42.007Z,63
2022-10-04T15:02:13.608Z,63
2022-10-04T15:04:46.423Z,63
2022-10-04T15:07:18.502Z,64
2022-10-04T15:09:50.115Z,62
2022-10-04T15:12:32.885Z,62
2022-10-04T15:14:53.887Z,62
2022-10-04T15:17:24.897Z,64
2022-10-04T15:19:55.985Z,64
2022-10-04T15:22:27.618Z,63
2022-10-04T15:25:00.028Z,63
2022-10-04T15:27:32.908Z,65
2022-10-04T15:30:05.984Z,64
2022-10-04T15:32:37.745Z,66
2022-10-04T15:35:07.924Z,65
2022-10-04T15:37:39.197Z,65
2022-10-04T15:40:10.552Z,64
2022-10-04T15:42:41.852Z,64
2022-10-04T15:45:14.755Z,65
2022-10-04T15:47:46.573Z,65
2022-10-04T15:50:18.760Z,65
2022-10-04T15:52:49.424Z,66
2022-10-04T15:55:21.971Z,66
2022-10-04T15:57:54.149Z,66
2022-10-04T16:00:25.658Z,66
2022-10-04T16:02:56.909Z,66
2022-10-04T16:05:29.009Z,66
2022-10-04T16:08:00.042Z,65
2022-10-04T16:10:32.657Z,66
2022-10-04T16:13:07.478Z,66
2022-10-04T16:15:40.119Z,65
2022-10-04T16:18:10.893Z,66
2022-10-04T16:20:43.747Z,66
2022-10-04T16:23:17.632Z,67
2022-10-04T16:25:47.034Z,67
2022-10-04T16:28:19.377Z,67
2022-10-04T16:30:57.949Z,67
2022-10-04T16:33:29.366Z,67
2022-10-04T16:36:02.107Z,68
2022-10-04T16:38:32.782Z,68
2022-10-04T16:41:04.547Z,69
2022-10-04T16:43:36.665Z,68
2022-10-04T16:46:09.405Z,69
2022-10-04T16:48:40.185Z,69
2022-10-04T16:51:11.776Z,69
2022-10-04T16:53:42.850Z,68
2022-10-04T16:56:15.049Z,68
2022-10-04T16:58:46.082Z,67
2022-10-04T17:01:17.335Z,68
2022-10-04T17:03:48.646Z,68
2022-10-04T17:06:19.618Z,68
2022-10-04T17:08:51.825Z,68
2022-10-04T17:11:22.867Z,69
2022-10-04T17:13:56.578Z,69
2022-10-04T17:16:26.838Z,69
2022-10-04T17:18:59.386Z,70
2022-10-04T17:21:30.626Z,69
2022-10-04T17:24:02.132Z,69
2022-10-04T17:26:37.728Z,69
2022-10-04T17:29:08.662Z,69
2022-10-04T17:31:39.941Z,69
2022-10-04T17:34:11.302Z,69
2022-10-04T17:36:42.918Z,69
2022-10-04T17:39:15.082Z,70
2022-10-04T17:41:47.791Z,68
2022-10-04T17:44:19.126Z,68
2022-10-04T17:46:51.540Z,69
2022-10-04T17:49:24.055Z,69
2022-10-04T17:51:55.571Z,68
2022-10-04T17:54:30.911Z,68
2022-10-04T17:57:03.485Z,69
2022-10-04T17:59:34.624Z,69
2022-10-04T18:02:07.121Z,69
2022-10-04T18:04:39.674Z,68
2022-10-04T18:07:11.844Z,69
2022-10-04T18:09:43.966Z,70
2022-10-04T18:12:16.267Z,69
2022-10-04T18:14:47.977Z,69
2022-10-04T18:17:17.612Z,70
2022-10-04T18:19:49.533Z,70
2022-10-04T18:22:23.103Z,70
2022-10-04T18:24:54.304Z,69
2022-10-04T18:27:25.475Z,69
2022-10-04T18:29:57.435Z,70
2022-10-04T18:32:31.287Z,70
2022-10-04T18:35:04.863Z,70
2022-10-04T18:37:37.384Z,70
2022-10-04T18:40:09.252Z,70
2022-10-04T18:42:40.202Z,69
2022-10-04T18:45:10.403Z,70
2022-10-04T18:47:42.857Z,70
2022-10-04T18:50:14.688Z,70
2022-10-04T18:52:46.418Z,69
2022-10-04T18:55:18.554Z,69
2022-10-04T18:57:51.612Z,70
2022-10-04T19:00:25.460Z,70
2022-10-04T19:02:58.109Z,70
2022-10-04T19:05:30.557Z,70
2022-10-04T19:08:03.358Z,70
2022-10-04T19:10:35.329Z,69
2022-10-04T19:13:06.925Z,70
2022-10-04T19:15:39.171Z,69
2022-10-04T19:18:10.360Z,69
2022-10-04T19:20:41.516Z,70
2022-10-04T19:23:13.466Z,69
2022-10-04T19:25:57.402Z,70
2022-10-04T19:28:16.756Z,70
2022-10-04T19:30:47.676Z,70
2022-10-04T19:33:20.117Z,69
2022-10-04T19:35:53.631Z,70
2022-10-04T19:38:25.921Z,70
2022-10-04T19:40:55.947Z,70
2022-10-04T19:43:27.300Z,70
2022-10-04T19:45:59.329Z,71
2022-10-04T19:48:31.217Z,71
2022-10-04T19:51:03.318Z,71
2022-10-04T19:53:34.960Z,71
2022-10-04T19:56:04.936Z,70
2022-10-04T19:58:39.920Z,70
2022-10-04T20:01:12.018Z,70
2022-10-04T20:03:41.033Z,74
2022-10-04T20:06:15.689Z,69
2022-10-04T20:08:47.153Z,69
2022-10-04T20:11:19.324Z,69
2022-10-04T20:13:51.643Z,70
2022-10-04T20:16:23.341Z,70
2022-10-04T20:18:55.993Z,71
2022-10-04T20:21:29.009Z,71
2022-10-04T20:24:00.670Z,71
2022-10-04T20:26:33.263Z,71
2022-10-04T20:29:04.677Z,71
2022-10-04T20:31:36.003Z,71
2022-10-04T20:34:08.463Z,71
2022-10-04T20:36:39.846Z,71
2022-10-04T20:39:11.262Z,71
2022-10-04T20:41:44.469Z,71
2022-10-04T20:44:16.104Z,71
2022-10-04T20:46:48.305Z,71
2022-10-04T20:49:20.945Z,71
2022-10-04T20:51:52.107Z,71
2022-10-04T20:54:23.216Z,71
2022-10-04T20:56:54.780Z,71
2022-10-04T20:59:26.420Z,71
2022-10-04T21:02:00.015Z,72
2022-10-04T21:04:31.680Z,71
2022-10-04T21:07:03.176Z,71
2022-10-04T21:09:35.219Z,71
2022-10-04T21:12:07.170Z,71
2022-10-04T21:14:37.467Z,71
2022-10-04T21:17:09.210Z,71
2022-10-04T21:19:40.628Z,71
2022-10-04T21:22:12.091Z,71
2022-10-04T21:24:44.451Z,71
2022-10-04T21:27:16.345Z,71
2022-10-04T21:29:47.875Z,72
2022-10-04T21:32:19.386Z,72
2022-10-04T21:34:53.300Z,71
2022-10-04T21:37:20.499Z,72
2022-10-04T21:39:52.404Z,72
2022-10-04T21:42:24.319Z,71
2022-10-04T21:44:55.750Z,72
2022-10-04T21:47:28.759Z,73
2022-10-04T21:50:00.210Z,72
2022-10-04T21:52:32.062Z,72
2022-10-04T21:55:05.446Z,72
2022-10-04T21:57:37.405Z,72
2022-10-04T22:00:14.388Z,72
2022-10-04T22:02:46.785Z,72
2022-10-04T22:05:18.004Z,72
2022-10-04T22:07:49.491Z,72
2022-10-04T22:10:20.782Z,72
2022-10-04T22:12:52.170Z,72
2022-10-04T22:15:25.218Z,72
2022-10-04T22:17:56.935Z,72
2022-10-04T22:20:28.566Z,72
2022-10-04T22:23:00.764Z,72
2022-10-04T22:25:32.126Z,72
2022-10-04T22:28:03.278Z,72
2022-10-04T22:30:34.349Z,72
2022-10-04T22:33:05.340Z,72
2022-10-04T22:35:36.921Z,72
2022-10-04T22:38:07.979Z,71
2022-10-04T22:40:39.366Z,72
2022-10-04T22:43:10.390Z,72
2022-10-04T22:45:41.668Z,72
2022-10-04T22:48:12.293Z,72
2022-10-04T22:50:43.799Z,72
2022-10-04T22:53:17.534Z,72
2022-10-04T22:55:48.305Z,72
2022-10-04T22:58:20.327Z,72
2022-10-04T23:00:51.766Z,73
2022-10-04T23:03:23.117Z,73
2022-10-04T23:05:53.748Z,73
2022-10-04T23:08:24.821Z,73
2022-10-04T23:10:56.502Z,73
2022-10-04T23:13:26.889Z,74
2022-10-04T23:15:59.150Z,74
2022-10-04T23:18:31.032Z,73
2022-10-04T23:21:05.776Z,73
2022-10-04T23:23:36.828Z,73
2022-10-04T23:26:10.672Z,74
2022-10-04T23:28:42.086Z,73
2022-10-04T23:31:13.635Z,73
2022-10-04T23:33:44.051Z,73
2022-10-04T23:36:14.996Z,73
2022-10-04T23:38:46.682Z,72
2022-10-04T23:41:15.880Z,73
2022-10-04T23:43:47.425Z,73
2022-10-04T23:46:19.681Z,72
2022-10-04T23:48:51.499Z,73
2022-10-04T23:51:23.955Z,73
2022-10-04T23:53:55.647Z,73
2022-10-04T23:56:27.892Z,73
2022-10-04T23:58:59.069Z,73
